sensor_id;sensor_type;location;lat;lon;timestamp;P1;durP1;ratioP1;P2;durP2;ratioP2
46563;SDS011;32291;52.010;4.446;2023-01-31T00:00:41;14.93;;;3.97;;
46563;SDS011;32291;52.010;4.446;2023-01-31T00:01:42;23.00;;;3.40;;
46563;SDS011;32291;52.010;4.446;2023-01-31T00:02:43;14.75;;;4.00;;
46563;SDS011;32291;52.010;4.446;2023-01-31T00:03:44;21.52;;;3.80;;
46563;SDS011;32291;52.010;4.446;2023-01-31T00:04:47;14.40;;;3.33;;
46563;SDS011;32291;52.010;4.446;2023-01-31T00:05:50;15.90;;;3.55;;
46563;SDS011;32291;52.010;4.446;2023-01-31T00:06:51;12.18;;;3.22;;
46563;SDS011;32291;52.010;4.446;2023-01-31T00:07:53;11.68;;;2.97;;
46563;SDS011;32291;52.010;4.446;2023-01-31T00:08:55;16.77;;;3.58;;
46563;SDS011;32291;52.010;4.446;2023-01-31T00:09:58;12.98;;;3.20;;
46563;SDS011;32291;52.010;4.446;2023-01-31T00:11:00;13.63;;;3.22;;
46563;SDS011;32291;52.010;4.446;2023-01-31T00:12:01;12.60;;;2.65;;
46563;SDS011;32291;52.010;4.446;2023-01-31T00:13:03;12.27;;;3.40;;
46563;SDS011;32291;52.010;4.446;2023-01-31T00:14:04;13.40;;;3.85;;
46563;SDS011;32291;52.010;4.446;2023-01-31T00:15:07;13.13;;;3.05;;
46563;SDS011;32291;52.010;4.446;2023-01-31T00:16:09;9.82;;;2.78;;
46563;SDS011;32291;52.010;4.446;2023-01-31T00:17:12;10.35;;;3.47;;
46563;SDS011;32291;52.010;4.446;2023-01-31T00:18:13;9.13;;;3.40;;
46563;SDS011;32291;52.010;4.446;2023-01-31T00:19:14;17.17;;;4.03;;
46563;SDS011;32291;52.010;4.446;2023-01-31T00:20:16;18.38;;;3.22;;
46563;SDS011;32291;52.010;4.446;2023-01-31T00:21:20;15.07;;;3.25;;
46563;SDS011;32291;52.010;4.446;2023-01-31T00:22:26;13.55;;;3.17;;
46563;SDS011;32291;52.010;4.446;2023-01-31T00:23:28;8.90;;;2.70;;
46563;SDS011;32291;52.010;4.446;2023-01-31T00:24:29;12.38;;;3.15;;
46563;SDS011;32291;52.010;4.446;2023-01-31T00:25:31;11.05;;;3.17;;
46563;SDS011;32291;52.010;4.446;2023-01-31T00:26:33;15.25;;;3.65;;
46563;SDS011;32291;52.010;4.446;2023-01-31T00:27:35;12.73;;;3.28;;
46563;SDS011;32291;52.010;4.446;2023-01-31T00:28:37;10.95;;;2.80;;
46563;SDS011;32291;52.010;4.446;2023-01-31T00:29:41;13.90;;;3.50;;
46563;SDS011;32291;52.010;4.446;2023-01-31T00:30:43;16.25;;;3.10;;
46563;SDS011;32291;52.010;4.446;2023-01-31T00:31:44;12.68;;;3.70;;
46563;SDS011;32291;52.010;4.446;2023-01-31T00:32:46;15.95;;;3.95;;
46563;SDS011;32291;52.010;4.446;2023-01-31T00:33:47;13.65;;;3.35;;
46563;SDS011;32291;52.010;4.446;2023-01-31T00:34:50;13.13;;;3.20;;
46563;SDS011;32291;52.010;4.446;2023-01-31T00:35:51;17.10;;;3.70;;
46563;SDS011;32291;52.010;4.446;2023-01-31T00:36:53;12.38;;;3.50;;
46563;SDS011;32291;52.010;4.446;2023-01-31T00:37:54;11.13;;;3.13;;
46563;SDS011;32291;52.010;4.446;2023-01-31T00:38:56;8.52;;;3.22;;
46563;SDS011;32291;52.010;4.446;2023-01-31T00:39:59;12.20;;;2.90;;
46563;SDS011;32291;52.010;4.446;2023-01-31T00:41:01;20.10;;;3.05;;
46563;SDS011;32291;52.010;4.446;2023-01-31T00:42:03;17.95;;;4.05;;
46563;SDS011;32291;52.010;4.446;2023-01-31T00:43:05;14.43;;;3.03;;
46563;SDS011;32291;52.010;4.446;2023-01-31T00:44:06;13.95;;;3.15;;
46563;SDS011;32291;52.010;4.446;2023-01-31T00:45:07;12.63;;;2.85;;
46563;SDS011;32291;52.010;4.446;2023-01-31T00:46:09;18.63;;;4.05;;
46563;SDS011;32291;52.010;4.446;2023-01-31T00:47:11;19.13;;;3.42;;
46563;SDS011;32291;52.010;4.446;2023-01-31T00:48:13;18.38;;;4.10;;
46563;SDS011;32291;52.010;4.446;2023-01-31T00:49:14;19.27;;;4.10;;
46563;SDS011;32291;52.010;4.446;2023-01-31T00:50:16;14.57;;;4.47;;
46563;SDS011;32291;52.010;4.446;2023-01-31T00:51:18;12.45;;;3.05;;
46563;SDS011;32291;52.010;4.446;2023-01-31T00:52:20;13.35;;;3.67;;
46563;SDS011;32291;52.010;4.446;2023-01-31T00:53:21;12.00;;;3.60;;
46563;SDS011;32291;52.010;4.446;2023-01-31T00:54:23;22.75;;;4.47;;
46563;SDS011;32291;52.010;4.446;2023-01-31T00:55:24;12.70;;;3.50;;
46563;SDS011;32291;52.010;4.446;2023-01-31T00:56:26;17.52;;;3.35;;
46563;SDS011;32291;52.010;4.446;2023-01-31T00:57:27;14.85;;;3.67;;
46563;SDS011;32291;52.010;4.446;2023-01-31T00:58:28;16.30;;;3.53;;
46563;SDS011;32291;52.010;4.446;2023-01-31T00:59:29;14.15;;;3.50;;
46563;SDS011;32291;52.010;4.446;2023-01-31T01:00:31;13.85;;;3.97;;
46563;SDS011;32291;52.010;4.446;2023-01-31T01:01:32;19.10;;;4.25;;
46563;SDS011;32291;52.010;4.446;2023-01-31T01:02:35;11.02;;;3.45;;
46563;SDS011;32291;52.010;4.446;2023-01-31T01:03:37;18.55;;;3.58;;
46563;SDS011;32291;52.010;4.446;2023-01-31T01:04:39;16.38;;;3.08;;
46563;SDS011;32291;52.010;4.446;2023-01-31T01:05:40;19.55;;;3.75;;
46563;SDS011;32291;52.010;4.446;2023-01-31T01:06:41;19.60;;;3.83;;
46563;SDS011;32291;52.010;4.446;2023-01-31T01:07:43;13.63;;;3.75;;
46563;SDS011;32291;52.010;4.446;2023-01-31T01:08:44;21.80;;;4.57;;
46563;SDS011;32291;52.010;4.446;2023-01-31T01:09:45;14.30;;;3.67;;
46563;SDS011;32291;52.010;4.446;2023-01-31T01:10:47;20.45;;;4.32;;
46563;SDS011;32291;52.010;4.446;2023-01-31T01:11:48;12.02;;;3.58;;
46563;SDS011;32291;52.010;4.446;2023-01-31T01:12:49;17.45;;;3.97;;
46563;SDS011;32291;52.010;4.446;2023-01-31T01:13:51;14.70;;;3.63;;
46563;SDS011;32291;52.010;4.446;2023-01-31T01:14:53;21.38;;;4.28;;
46563;SDS011;32291;52.010;4.446;2023-01-31T01:15:54;21.05;;;4.40;;
46563;SDS011;32291;52.010;4.446;2023-01-31T01:16:55;23.33;;;4.55;;
46563;SDS011;32291;52.010;4.446;2023-01-31T01:17:58;20.13;;;4.63;;
46563;SDS011;32291;52.010;4.446;2023-01-31T01:19:00;26.67;;;4.32;;
46563;SDS011;32291;52.010;4.446;2023-01-31T01:20:02;15.38;;;4.32;;
46563;SDS011;32291;52.010;4.446;2023-01-31T01:21:05;19.80;;;4.78;;
46563;SDS011;32291;52.010;4.446;2023-01-31T01:22:11;25.13;;;5.75;;
46563;SDS011;32291;52.010;4.446;2023-01-31T01:23:15;21.83;;;4.75;;
46563;SDS011;32291;52.010;4.446;2023-01-31T01:24:17;22.98;;;4.38;;
46563;SDS011;32291;52.010;4.446;2023-01-31T01:25:19;23.92;;;5.25;;
46563;SDS011;32291;52.010;4.446;2023-01-31T01:26:26;23.05;;;5.38;;
46563;SDS011;32291;52.010;4.446;2023-01-31T01:27:29;22.67;;;4.70;;
46563;SDS011;32291;52.010;4.446;2023-01-31T01:28:33;30.27;;;5.38;;
46563;SDS011;32291;52.010;4.446;2023-01-31T01:29:35;28.70;;;6.53;;
46563;SDS011;32291;52.010;4.446;2023-01-31T01:30:37;21.55;;;5.75;;
46563;SDS011;32291;52.010;4.446;2023-01-31T01:31:39;19.08;;;6.00;;
46563;SDS011;32291;52.010;4.446;2023-01-31T01:32:40;27.77;;;6.13;;
46563;SDS011;32291;52.010;4.446;2023-01-31T01:33:42;23.40;;;5.43;;
46563;SDS011;32291;52.010;4.446;2023-01-31T01:34:44;19.20;;;6.72;;
46563;SDS011;32291;52.010;4.446;2023-01-31T01:35:45;25.00;;;5.85;;
46563;SDS011;32291;52.010;4.446;2023-01-31T01:36:46;28.17;;;5.13;;
46563;SDS011;32291;52.010;4.446;2023-01-31T01:37:48;23.83;;;5.68;;
46563;SDS011;32291;52.010;4.446;2023-01-31T01:38:49;25.55;;;5.40;;
46563;SDS011;32291;52.010;4.446;2023-01-31T01:39:51;20.80;;;6.25;;
46563;SDS011;32291;52.010;4.446;2023-01-31T01:40:52;20.38;;;6.53;;
46563;SDS011;32291;52.010;4.446;2023-01-31T01:41:53;22.88;;;5.60;;
46563;SDS011;32291;52.010;4.446;2023-01-31T01:42:55;23.90;;;5.97;;
46563;SDS011;32291;52.010;4.446;2023-01-31T01:43:57;28.33;;;6.75;;
46563;SDS011;32291;52.010;4.446;2023-01-31T01:45:02;31.15;;;6.13;;
46563;SDS011;32291;52.010;4.446;2023-01-31T01:46:16;26.27;;;6.22;;
46563;SDS011;32291;52.010;4.446;2023-01-31T01:48:31;22.30;;;5.85;;
46563;SDS011;32291;52.010;4.446;2023-01-31T01:49:33;25.88;;;7.40;;
46563;SDS011;32291;52.010;4.446;2023-01-31T01:50:38;19.42;;;5.97;;
46563;SDS011;32291;52.010;4.446;2023-01-31T01:51:43;32.08;;;6.38;;
46563;SDS011;32291;52.010;4.446;2023-01-31T01:52:48;27.10;;;7.25;;
46563;SDS011;32291;52.010;4.446;2023-01-31T01:53:56;32.10;;;6.53;;
46563;SDS011;32291;52.010;4.446;2023-01-31T01:55:03;30.13;;;9.82;;
46563;SDS011;32291;52.010;4.446;2023-01-31T01:56:15;30.77;;;7.28;;
46563;SDS011;32291;52.010;4.446;2023-01-31T01:57:20;18.90;;;6.78;;
46563;SDS011;32291;52.010;4.446;2023-01-31T01:59:42;24.48;;;6.45;;
46563;SDS011;32291;52.010;4.446;2023-01-31T02:00:52;23.05;;;6.47;;
46563;SDS011;32291;52.010;4.446;2023-01-31T02:01:54;23.25;;;6.90;;
46563;SDS011;32291;52.010;4.446;2023-01-31T02:02:57;26.13;;;6.70;;
46563;SDS011;32291;52.010;4.446;2023-01-31T02:04:00;29.33;;;6.95;;
46563;SDS011;32291;52.010;4.446;2023-01-31T02:05:05;23.75;;;5.95;;
46563;SDS011;32291;52.010;4.446;2023-01-31T02:06:07;28.45;;;6.97;;
46563;SDS011;32291;52.010;4.446;2023-01-31T02:07:09;24.02;;;6.40;;
46563;SDS011;32291;52.010;4.446;2023-01-31T02:08:11;29.55;;;7.93;;
46563;SDS011;32291;52.010;4.446;2023-01-31T02:09:18;25.38;;;6.43;;
46563;SDS011;32291;52.010;4.446;2023-01-31T02:11:52;26.05;;;7.35;;
46563;SDS011;32291;52.010;4.446;2023-01-31T02:12:53;20.38;;;6.32;;
46563;SDS011;32291;52.010;4.446;2023-01-31T02:13:59;29.00;;;7.10;;
46563;SDS011;32291;52.010;4.446;2023-01-31T02:15:02;23.25;;;6.20;;
46563;SDS011;32291;52.010;4.446;2023-01-31T02:16:05;31.00;;;7.38;;
46563;SDS011;32291;52.010;4.446;2023-01-31T02:17:13;26.60;;;5.90;;
46563;SDS011;32291;52.010;4.446;2023-01-31T02:18:18;23.63;;;6.55;;
46563;SDS011;32291;52.010;4.446;2023-01-31T02:19:28;17.08;;;5.90;;
46563;SDS011;32291;52.010;4.446;2023-01-31T02:21:53;22.52;;;5.93;;
46563;SDS011;32291;52.010;4.446;2023-01-31T02:28:35;22.27;;;6.32;;
46563;SDS011;32291;52.010;4.446;2023-01-31T02:36:17;27.10;;;6.55;;
46563;SDS011;32291;52.010;4.446;2023-01-31T02:37:35;26.52;;;7.80;;
46563;SDS011;32291;52.010;4.446;2023-01-31T02:38:45;25.70;;;7.63;;
46563;SDS011;32291;52.010;4.446;2023-01-31T02:41:18;25.88;;;6.90;;
46563;SDS011;32291;52.010;4.446;2023-01-31T02:42:46;26.35;;;7.00;;
46563;SDS011;32291;52.010;4.446;2023-01-31T02:46:53;24.92;;;7.35;;
46563;SDS011;32291;52.010;4.446;2023-01-31T02:50:39;24.50;;;7.03;;
46563;SDS011;32291;52.010;4.446;2023-01-31T02:51:42;20.92;;;7.18;;
46563;SDS011;32291;52.010;4.446;2023-01-31T02:54:17;26.08;;;7.00;;
46563;SDS011;32291;52.010;4.446;2023-01-31T02:56:03;25.23;;;6.65;;
46563;SDS011;32291;52.010;4.446;2023-01-31T02:57:14;24.52;;;7.82;;
46563;SDS011;32291;52.010;4.446;2023-01-31T02:58:18;28.40;;;7.93;;
46563;SDS011;32291;52.010;4.446;2023-01-31T02:59:22;24.23;;;7.78;;
46563;SDS011;32291;52.010;4.446;2023-01-31T03:00:28;27.70;;;9.73;;
46563;SDS011;32291;52.010;4.446;2023-01-31T03:01:37;27.98;;;7.40;;
46563;SDS011;32291;52.010;4.446;2023-01-31T03:02:43;30.60;;;6.85;;
46563;SDS011;32291;52.010;4.446;2023-01-31T03:03:44;24.25;;;7.10;;
46563;SDS011;32291;52.010;4.446;2023-01-31T03:04:46;28.20;;;8.15;;
46563;SDS011;32291;52.010;4.446;2023-01-31T03:07:15;21.42;;;6.78;;
46563;SDS011;32291;52.010;4.446;2023-01-31T03:08:26;21.13;;;7.63;;
46563;SDS011;32291;52.010;4.446;2023-01-31T03:09:32;29.95;;;8.05;;
46563;SDS011;32291;52.010;4.446;2023-01-31T03:13:10;26.33;;;7.20;;
46563;SDS011;32291;52.010;4.446;2023-01-31T03:18:15;25.42;;;6.75;;
46563;SDS011;32291;52.010;4.446;2023-01-31T03:21:35;23.25;;;7.45;;
46563;SDS011;32291;52.010;4.446;2023-01-31T03:22:40;30.02;;;9.85;;
46563;SDS011;32291;52.010;4.446;2023-01-31T03:23:49;33.20;;;7.55;;
46563;SDS011;32291;52.010;4.446;2023-01-31T03:24:54;27.00;;;9.18;;
46563;SDS011;32291;52.010;4.446;2023-01-31T03:25:57;20.58;;;7.13;;
46563;SDS011;32291;52.010;4.446;2023-01-31T03:27:00;26.48;;;7.55;;
46563;SDS011;32291;52.010;4.446;2023-01-31T03:28:05;31.88;;;8.30;;
46563;SDS011;32291;52.010;4.446;2023-01-31T03:29:12;25.75;;;7.72;;
46563;SDS011;32291;52.010;4.446;2023-01-31T03:30:16;24.48;;;8.50;;
46563;SDS011;32291;52.010;4.446;2023-01-31T03:31:24;28.77;;;7.10;;
46563;SDS011;32291;52.010;4.446;2023-01-31T03:32:31;25.95;;;7.55;;
46563;SDS011;32291;52.010;4.446;2023-01-31T03:33:39;29.52;;;8.57;;
46563;SDS011;32291;52.010;4.446;2023-01-31T03:35:01;25.63;;;7.00;;
46563;SDS011;32291;52.010;4.446;2023-01-31T03:36:09;29.13;;;7.57;;
46563;SDS011;32291;52.010;4.446;2023-01-31T03:38:40;29.10;;;8.02;;
46563;SDS011;32291;52.010;4.446;2023-01-31T03:39:54;30.13;;;8.23;;
46563;SDS011;32291;52.010;4.446;2023-01-31T03:41:05;22.27;;;8.10;;
46563;SDS011;32291;52.010;4.446;2023-01-31T03:43:18;25.77;;;8.25;;
46563;SDS011;32291;52.010;4.446;2023-01-31T03:45:11;40.58;;;9.82;;
46563;SDS011;32291;52.010;4.446;2023-01-31T03:47:21;23.35;;;7.75;;
46563;SDS011;32291;52.010;4.446;2023-01-31T03:48:26;21.75;;;7.75;;
46563;SDS011;32291;52.010;4.446;2023-01-31T03:49:31;25.52;;;7.20;;
46563;SDS011;32291;52.010;4.446;2023-01-31T03:50:41;19.13;;;6.80;;
46563;SDS011;32291;52.010;4.446;2023-01-31T03:51:50;23.50;;;7.85;;
46563;SDS011;32291;52.010;4.446;2023-01-31T03:52:55;25.08;;;7.03;;
46563;SDS011;32291;52.010;4.446;2023-01-31T03:54:03;27.58;;;6.20;;
46563;SDS011;32291;52.010;4.446;2023-01-31T03:55:14;31.65;;;8.00;;
46563;SDS011;32291;52.010;4.446;2023-01-31T03:57:27;25.73;;;7.47;;
46563;SDS011;32291;52.010;4.446;2023-01-31T03:58:35;27.25;;;7.28;;
46563;SDS011;32291;52.010;4.446;2023-01-31T03:59:42;24.73;;;7.65;;
46563;SDS011;32291;52.010;4.446;2023-01-31T04:00:47;26.35;;;7.57;;
46563;SDS011;32291;52.010;4.446;2023-01-31T04:01:50;25.42;;;8.07;;
46563;SDS011;32291;52.010;4.446;2023-01-31T04:02:59;24.40;;;7.53;;
46563;SDS011;32291;52.010;4.446;2023-01-31T04:04:11;25.20;;;8.23;;
46563;SDS011;32291;52.010;4.446;2023-01-31T04:05:18;23.92;;;7.10;;
46563;SDS011;32291;52.010;4.446;2023-01-31T04:06:23;26.98;;;7.43;;
46563;SDS011;32291;52.010;4.446;2023-01-31T04:07:24;27.13;;;6.82;;
46563;SDS011;32291;52.010;4.446;2023-01-31T04:08:25;23.23;;;6.43;;
46563;SDS011;32291;52.010;4.446;2023-01-31T04:09:27;23.20;;;6.72;;
46563;SDS011;32291;52.010;4.446;2023-01-31T04:10:29;18.70;;;6.50;;
46563;SDS011;32291;52.010;4.446;2023-01-31T04:11:34;27.83;;;8.40;;
46563;SDS011;32291;52.010;4.446;2023-01-31T04:12:38;24.02;;;7.82;;
46563;SDS011;32291;52.010;4.446;2023-01-31T04:13:40;25.17;;;6.15;;
46563;SDS011;32291;52.010;4.446;2023-01-31T04:14:42;20.67;;;6.45;;
46563;SDS011;32291;52.010;4.446;2023-01-31T04:15:44;24.02;;;6.88;;
46563;SDS011;32291;52.010;4.446;2023-01-31T04:16:45;24.17;;;6.45;;
46563;SDS011;32291;52.010;4.446;2023-01-31T04:17:46;26.98;;;7.32;;
46563;SDS011;32291;52.010;4.446;2023-01-31T04:18:48;19.05;;;7.05;;
46563;SDS011;32291;52.010;4.446;2023-01-31T04:19:49;24.88;;;6.57;;
46563;SDS011;32291;52.010;4.446;2023-01-31T04:20:51;21.35;;;7.97;;
46563;SDS011;32291;52.010;4.446;2023-01-31T04:21:52;20.98;;;6.50;;
46563;SDS011;32291;52.010;4.446;2023-01-31T04:22:54;24.10;;;7.53;;
46563;SDS011;32291;52.010;4.446;2023-01-31T04:23:56;25.23;;;5.85;;
46563;SDS011;32291;52.010;4.446;2023-01-31T04:24:57;26.13;;;8.00;;
46563;SDS011;32291;52.010;4.446;2023-01-31T04:25:58;20.30;;;6.72;;
46563;SDS011;32291;52.010;4.446;2023-01-31T04:27:00;18.88;;;6.15;;
46563;SDS011;32291;52.010;4.446;2023-01-31T04:28:01;23.35;;;6.47;;
46563;SDS011;32291;52.010;4.446;2023-01-31T04:29:02;23.70;;;6.53;;
46563;SDS011;32291;52.010;4.446;2023-01-31T04:30:05;26.13;;;5.82;;
46563;SDS011;32291;52.010;4.446;2023-01-31T04:31:07;22.55;;;7.03;;
46563;SDS011;32291;52.010;4.446;2023-01-31T04:32:10;25.75;;;6.47;;
46563;SDS011;32291;52.010;4.446;2023-01-31T04:33:11;20.05;;;6.35;;
46563;SDS011;32291;52.010;4.446;2023-01-31T04:34:12;24.52;;;7.32;;
46563;SDS011;32291;52.010;4.446;2023-01-31T04:35:14;24.55;;;7.45;;
46563;SDS011;32291;52.010;4.446;2023-01-31T04:36:15;19.40;;;5.93;;
46563;SDS011;32291;52.010;4.446;2023-01-31T04:37:16;21.02;;;6.75;;
46563;SDS011;32291;52.010;4.446;2023-01-31T04:38:18;26.75;;;5.70;;
46563;SDS011;32291;52.010;4.446;2023-01-31T04:39:19;24.98;;;6.13;;
46563;SDS011;32291;52.010;4.446;2023-01-31T04:40:20;17.35;;;5.30;;
46563;SDS011;32291;52.010;4.446;2023-01-31T04:41:21;19.58;;;5.53;;
46563;SDS011;32291;52.010;4.446;2023-01-31T04:42:23;27.23;;;6.13;;
46563;SDS011;32291;52.010;4.446;2023-01-31T04:43:25;16.85;;;5.43;;
46563;SDS011;32291;52.010;4.446;2023-01-31T04:44:26;19.58;;;5.60;;
46563;SDS011;32291;52.010;4.446;2023-01-31T04:45:28;19.83;;;4.85;;
46563;SDS011;32291;52.010;4.446;2023-01-31T04:46:29;20.88;;;5.47;;
46563;SDS011;32291;52.010;4.446;2023-01-31T04:47:30;16.10;;;5.55;;
46563;SDS011;32291;52.010;4.446;2023-01-31T04:48:31;33.40;;;5.80;;
46563;SDS011;32291;52.010;4.446;2023-01-31T04:49:33;18.88;;;5.25;;
46563;SDS011;32291;52.010;4.446;2023-01-31T04:50:35;18.23;;;5.70;;
46563;SDS011;32291;52.010;4.446;2023-01-31T04:51:36;29.60;;;6.50;;
46563;SDS011;32291;52.010;4.446;2023-01-31T04:52:37;16.70;;;5.70;;
46563;SDS011;32291;52.010;4.446;2023-01-31T04:53:38;16.88;;;4.60;;
46563;SDS011;32291;52.010;4.446;2023-01-31T04:54:40;15.65;;;5.25;;
46563;SDS011;32291;52.010;4.446;2023-01-31T04:55:42;16.95;;;5.45;;
46563;SDS011;32291;52.010;4.446;2023-01-31T04:56:43;18.58;;;5.57;;
46563;SDS011;32291;52.010;4.446;2023-01-31T04:57:44;20.60;;;5.35;;
46563;SDS011;32291;52.010;4.446;2023-01-31T04:58:48;13.48;;;5.13;;
46563;SDS011;32291;52.010;4.446;2023-01-31T04:59:50;17.08;;;5.28;;
46563;SDS011;32291;52.010;4.446;2023-01-31T05:00:52;18.42;;;6.45;;
46563;SDS011;32291;52.010;4.446;2023-01-31T05:01:54;15.93;;;4.90;;
46563;SDS011;32291;52.010;4.446;2023-01-31T05:02:55;19.48;;;6.15;;
46563;SDS011;32291;52.010;4.446;2023-01-31T05:03:56;19.75;;;4.93;;
46563;SDS011;32291;52.010;4.446;2023-01-31T05:04:57;23.42;;;5.25;;
46563;SDS011;32291;52.010;4.446;2023-01-31T05:05:59;22.00;;;5.68;;
46563;SDS011;32291;52.010;4.446;2023-01-31T05:07:00;18.50;;;4.72;;
46563;SDS011;32291;52.010;4.446;2023-01-31T05:08:02;17.40;;;5.13;;
46563;SDS011;32291;52.010;4.446;2023-01-31T05:09:04;23.40;;;5.47;;
46563;SDS011;32291;52.010;4.446;2023-01-31T05:10:06;26.95;;;5.88;;
46563;SDS011;32291;52.010;4.446;2023-01-31T05:11:08;16.25;;;4.90;;
46563;SDS011;32291;52.010;4.446;2023-01-31T05:12:10;23.63;;;5.57;;
46563;SDS011;32291;52.010;4.446;2023-01-31T05:13:11;20.73;;;5.13;;
46563;SDS011;32291;52.010;4.446;2023-01-31T05:14:14;21.17;;;5.43;;
46563;SDS011;32291;52.010;4.446;2023-01-31T05:15:15;24.15;;;5.35;;
46563;SDS011;32291;52.010;4.446;2023-01-31T05:16:17;20.20;;;4.68;;
46563;SDS011;32291;52.010;4.446;2023-01-31T05:17:18;27.20;;;6.57;;
46563;SDS011;32291;52.010;4.446;2023-01-31T05:18:26;19.67;;;5.07;;
46563;SDS011;32291;52.010;4.446;2023-01-31T05:19:27;21.50;;;5.00;;
46563;SDS011;32291;52.010;4.446;2023-01-31T05:20:34;27.10;;;6.15;;
46563;SDS011;32291;52.010;4.446;2023-01-31T05:21:39;20.75;;;5.07;;
46563;SDS011;32291;52.010;4.446;2023-01-31T05:22:58;15.25;;;5.00;;
46563;SDS011;32291;52.010;4.446;2023-01-31T05:24:00;23.10;;;5.10;;
46563;SDS011;32291;52.010;4.446;2023-01-31T05:25:01;23.83;;;5.50;;
46563;SDS011;32291;52.010;4.446;2023-01-31T05:26:02;18.35;;;5.68;;
46563;SDS011;32291;52.010;4.446;2023-01-31T05:27:04;21.17;;;4.85;;
46563;SDS011;32291;52.010;4.446;2023-01-31T05:28:05;26.20;;;5.43;;
46563;SDS011;32291;52.010;4.446;2023-01-31T05:29:07;19.15;;;4.78;;
46563;SDS011;32291;52.010;4.446;2023-01-31T05:30:08;26.30;;;6.20;;
46563;SDS011;32291;52.010;4.446;2023-01-31T05:31:10;19.20;;;5.05;;
46563;SDS011;32291;52.010;4.446;2023-01-31T05:32:14;23.65;;;5.15;;
46563;SDS011;32291;52.010;4.446;2023-01-31T05:33:17;18.85;;;5.85;;
46563;SDS011;32291;52.010;4.446;2023-01-31T05:34:22;22.65;;;7.38;;
46563;SDS011;32291;52.010;4.446;2023-01-31T05:35:25;16.30;;;4.55;;
46563;SDS011;32291;52.010;4.446;2023-01-31T05:36:26;30.65;;;5.97;;
46563;SDS011;32291;52.010;4.446;2023-01-31T05:37:27;23.58;;;5.22;;
46563;SDS011;32291;52.010;4.446;2023-01-31T05:38:28;22.73;;;5.43;;
46563;SDS011;32291;52.010;4.446;2023-01-31T05:39:30;18.15;;;5.53;;
46563;SDS011;32291;52.010;4.446;2023-01-31T05:40:32;20.13;;;5.35;;
46563;SDS011;32291;52.010;4.446;2023-01-31T05:41:34;30.20;;;5.97;;
46563;SDS011;32291;52.010;4.446;2023-01-31T05:42:35;19.55;;;4.03;;
46563;SDS011;32291;52.010;4.446;2023-01-31T05:43:36;18.10;;;4.40;;
46563;SDS011;32291;52.010;4.446;2023-01-31T05:44:38;18.98;;;5.40;;
46563;SDS011;32291;52.010;4.446;2023-01-31T05:45:39;21.48;;;5.07;;
46563;SDS011;32291;52.010;4.446;2023-01-31T05:46:41;23.25;;;5.28;;
46563;SDS011;32291;52.010;4.446;2023-01-31T05:47:44;18.30;;;4.78;;
46563;SDS011;32291;52.010;4.446;2023-01-31T05:48:47;22.77;;;5.95;;
46563;SDS011;32291;52.010;4.446;2023-01-31T05:49:48;22.33;;;5.78;;
46563;SDS011;32291;52.010;4.446;2023-01-31T05:50:50;19.40;;;4.45;;
46563;SDS011;32291;52.010;4.446;2023-01-31T05:51:51;14.55;;;4.57;;
46563;SDS011;32291;52.010;4.446;2023-01-31T05:52:53;17.48;;;4.50;;
46563;SDS011;32291;52.010;4.446;2023-01-31T05:53:56;15.63;;;4.80;;
46563;SDS011;32291;52.010;4.446;2023-01-31T05:54:57;17.55;;;5.22;;
46563;SDS011;32291;52.010;4.446;2023-01-31T05:55:59;19.38;;;5.60;;
46563;SDS011;32291;52.010;4.446;2023-01-31T05:57:00;22.10;;;5.53;;
46563;SDS011;32291;52.010;4.446;2023-01-31T05:58:01;12.40;;;4.05;;
46563;SDS011;32291;52.010;4.446;2023-01-31T05:59:02;20.65;;;4.50;;
46563;SDS011;32291;52.010;4.446;2023-01-31T06:00:04;20.75;;;4.07;;
46563;SDS011;32291;52.010;4.446;2023-01-31T06:01:07;19.02;;;4.45;;
46563;SDS011;32291;52.010;4.446;2023-01-31T06:02:09;19.55;;;5.55;;
46563;SDS011;32291;52.010;4.446;2023-01-31T06:03:13;21.73;;;4.90;;
46563;SDS011;32291;52.010;4.446;2023-01-31T06:04:14;18.10;;;4.05;;
46563;SDS011;32291;52.010;4.446;2023-01-31T06:05:16;21.45;;;4.45;;
46563;SDS011;32291;52.010;4.446;2023-01-31T06:06:17;21.30;;;4.43;;
46563;SDS011;32291;52.010;4.446;2023-01-31T06:07:19;17.08;;;4.00;;
46563;SDS011;32291;52.010;4.446;2023-01-31T06:08:22;31.80;;;5.80;;
46563;SDS011;32291;52.010;4.446;2023-01-31T06:09:23;23.25;;;5.30;;
46563;SDS011;32291;52.010;4.446;2023-01-31T06:10:25;17.85;;;4.45;;
46563;SDS011;32291;52.010;4.446;2023-01-31T06:11:26;18.17;;;4.32;;
46563;SDS011;32291;52.010;4.446;2023-01-31T06:12:27;21.40;;;4.93;;
46563;SDS011;32291;52.010;4.446;2023-01-31T06:13:29;20.77;;;4.15;;
46563;SDS011;32291;52.010;4.446;2023-01-31T06:14:34;17.25;;;4.60;;
46563;SDS011;32291;52.010;4.446;2023-01-31T06:15:35;17.50;;;4.65;;
46563;SDS011;32291;52.010;4.446;2023-01-31T06:16:37;18.50;;;4.05;;
46563;SDS011;32291;52.010;4.446;2023-01-31T06:17:39;23.48;;;4.32;;
46563;SDS011;32291;52.010;4.446;2023-01-31T06:18:40;13.60;;;4.18;;
46563;SDS011;32291;52.010;4.446;2023-01-31T06:19:41;16.38;;;4.20;;
46563;SDS011;32291;52.010;4.446;2023-01-31T06:20:43;14.52;;;4.95;;
46563;SDS011;32291;52.010;4.446;2023-01-31T06:21:44;19.50;;;4.40;;
46563;SDS011;32291;52.010;4.446;2023-01-31T06:22:45;14.27;;;3.67;;
46563;SDS011;32291;52.010;4.446;2023-01-31T06:23:47;17.92;;;4.43;;
46563;SDS011;32291;52.010;4.446;2023-01-31T06:24:48;18.90;;;3.70;;
46563;SDS011;32291;52.010;4.446;2023-01-31T06:25:50;17.05;;;3.63;;
46563;SDS011;32291;52.010;4.446;2023-01-31T06:26:53;22.30;;;4.88;;
46563;SDS011;32291;52.010;4.446;2023-01-31T06:27:54;12.25;;;3.38;;
46563;SDS011;32291;52.010;4.446;2023-01-31T06:28:56;16.20;;;4.28;;
46563;SDS011;32291;52.010;4.446;2023-01-31T06:29:57;17.35;;;3.97;;
46563;SDS011;32291;52.010;4.446;2023-01-31T06:30:58;12.40;;;4.65;;
46563;SDS011;32291;52.010;4.446;2023-01-31T06:32:05;17.85;;;4.15;;
46563;SDS011;32291;52.010;4.446;2023-01-31T06:33:07;13.88;;;3.80;;
46563;SDS011;32291;52.010;4.446;2023-01-31T06:34:09;14.85;;;3.28;;
46563;SDS011;32291;52.010;4.446;2023-01-31T06:35:10;20.27;;;3.67;;
46563;SDS011;32291;52.010;4.446;2023-01-31T06:36:12;18.27;;;4.63;;
46563;SDS011;32291;52.010;4.446;2023-01-31T06:37:13;16.25;;;3.63;;
46563;SDS011;32291;52.010;4.446;2023-01-31T06:38:14;14.15;;;3.00;;
46563;SDS011;32291;52.010;4.446;2023-01-31T06:39:16;15.73;;;3.38;;
46563;SDS011;32291;52.010;4.446;2023-01-31T06:40:17;15.50;;;3.38;;
46563;SDS011;32291;52.010;4.446;2023-01-31T06:41:18;12.85;;;4.28;;
46563;SDS011;32291;52.010;4.446;2023-01-31T06:42:20;11.43;;;2.58;;
46563;SDS011;32291;52.010;4.446;2023-01-31T06:43:22;9.02;;;3.05;;
46563;SDS011;32291;52.010;4.446;2023-01-31T06:44:23;12.20;;;3.25;;
46563;SDS011;32291;52.010;4.446;2023-01-31T06:45:24;13.32;;;3.95;;
46563;SDS011;32291;52.010;4.446;2023-01-31T06:46:25;14.88;;;3.38;;
46563;SDS011;32291;52.010;4.446;2023-01-31T06:47:27;15.20;;;3.00;;
46563;SDS011;32291;52.010;4.446;2023-01-31T06:48:28;9.60;;;2.95;;
46563;SDS011;32291;52.010;4.446;2023-01-31T06:49:30;9.35;;;2.08;;
46563;SDS011;32291;52.010;4.446;2023-01-31T06:50:31;14.43;;;3.53;;
46563;SDS011;32291;52.010;4.446;2023-01-31T06:51:33;13.88;;;3.20;;
46563;SDS011;32291;52.010;4.446;2023-01-31T06:52:35;11.80;;;3.20;;
46563;SDS011;32291;52.010;4.446;2023-01-31T06:53:36;13.27;;;3.38;;
46563;SDS011;32291;52.010;4.446;2023-01-31T06:54:37;11.35;;;3.30;;
46563;SDS011;32291;52.010;4.446;2023-01-31T06:55:39;14.02;;;3.08;;
46563;SDS011;32291;52.010;4.446;2023-01-31T06:56:40;12.85;;;2.50;;
46563;SDS011;32291;52.010;4.446;2023-01-31T06:57:48;9.95;;;3.53;;